Terminal Aerodrome Forecast
Issued by NWS Mt. Holly, NJ

Home | Current Version | Previous Version | Text Only | Print | Product List | Glossary On
Versions: 1 2 3 4 5 6 7 8 9 10 11 12 13 14 15 16 17 18 19
000
FTUS41 KPHI 041748
TAFTTN
TAF
KTTN 041748Z 0418/0518 10012KT P6SM SCT020 BKN035
     FM050100 09009KT P6SM BKN025
     FM050500 06006KT 6SM BR BKN015
     FM051300 08010KT P6SM SCT025 SCT050=

USA.gov is the U.S. government's official web portal to all federal, state and local government web resources and services.